createdAt,value
2022-10-11T00:16:33.247Z,1021.62
2022-10-11T00:45:33.777Z,1021.61
2022-10-11T01:14:20.606Z,1021.68
2022-10-11T01:43:10.345Z,1021.72
2022-10-11T02:11:59.886Z,1021.7
2022-10-11T02:40:54.636Z,1021.63
2022-10-11T03:09:48.964Z,1021.68
2022-10-11T03:38:26.466Z,1021.87
2022-10-11T04:07:12.937Z,1021.87
2022-10-11T04:36:09.697Z,1021.98
2022-10-11T05:04:38.225Z,1022.09
2022-10-11T05:33:14.960Z,1022.21
2022-10-11T06:01:47.756Z,1022.58
2022-10-11T06:30:19.211Z,1022.9
2022-10-11T06:58:55.126Z,1023.26
2022-10-11T07:27:29.296Z,1023.55
2022-10-11T07:56:06.922Z,1023.58
2022-10-11T08:24:40.658Z,1023.63
2022-10-11T08:53:37.243Z,1023.8
2022-10-11T09:22:20.497Z,1023.87
2022-10-11T09:50:53.081Z,1023.84
2022-10-11T10:19:31.859Z,1023.94
2022-10-11T10:48:11.177Z,1023.95
2022-10-11T11:17:15.003Z,1023.71
2022-10-11T12:13:59.738Z,1023.43
2022-10-11T12:42:41.133Z,1023.26
2022-10-11T13:11:17.749Z,1022.99
2022-10-11T13:40:02.603Z,1023
2022-10-11T14:08:21.712Z,1022.89
2022-10-11T14:36:56.430Z,1022.87
2022-10-11T15:05:35.015Z,1022.98
2022-10-11T15:33:44.929Z,1022.79
2022-10-11T16:02:15.470Z,1022.68
2022-10-11T16:30:43.789Z,1022.6
2022-10-11T16:59:23.876Z,1022.67
2022-10-11T17:28:10.507Z,1022.81
2022-10-11T17:56:54.205Z,1022.77
2022-10-11T18:25:33.957Z,1022.9
2022-10-11T18:54:22.173Z,1022.89
2022-10-11T19:22:40.674Z,1022.91
2022-10-11T19:51:28.257Z,1022.86
2022-10-11T20:19:59.398Z,1023.02
2022-10-11T20:51:13.685Z,1023.08
2022-10-11T21:22:15.531Z,1023.24
